Time;durP1;ratioP1;P1;durP2;ratioP2;P2;SDS_P1;SDS_P2;PMS_P1;PMS_P2;Temp;Humidity;BMP_temperature;BMP_pressure;BME280_temperature;BME280_humidity;BME280_pressure;Samples;Min_cycle;Max_cycle;Signal;HPM_P1;HPM_P2
2021/11/26 00:01:26;;;;;;;;;;;;;;;22.24;27.29;97978.03;4942852;29;924;-78
2021/11/26 00:03:52;;;;;;;;;;;;;;;22.44;27.95;97968.53;4941688;29;916;-76
2021/11/26 00:06:17;;;;;;;;;;;;;;;22.71;27.24;97968.09;4924885;29;999;-77
2021/11/26 00:08:43;;;;;;;;;;;;;;;22.55;27.02;97964.13;4902343;29;919;-77
2021/11/26 00:11:08;;;;;;;;;;;;;;;22.24;27.15;97969.53;4902946;29;1226;-77
2021/11/26 00:13:47;;;;;;;;;;;;;;;22.19;27.45;97955.91;4883501;29;1990;-76
2021/11/26 00:16:18;;;;;;;;;;;;;;;22.59;27.08;97970.47;4887416;29;972;-77
2021/11/26 00:18:48;;;;;;;;;;;;;;;22.81;26.74;97970.59;4883597;29;967;-76
2021/11/26 00:21:14;;;;;;;;;;;;;;;22.67;26.81;97961.75;4869839;29;968;-76
2021/11/26 00:23:40;;;;;;;;;;;;;;;22.29;27.28;97960.47;4864812;29;897;-77
2021/11/26 00:26:05;;;;;;;;;;;;;;;22.22;27.31;97952.16;4868437;29;942;-77
2021/11/26 00:28:31;;;;;;;;;;;;;;;22.34;27.77;97954.22;4881107;29;913;-77
2021/11/26 00:30:56;;;;;;;;;;;;;;;22.81;26.81;97956.41;4887100;29;997;-77
2021/11/26 00:33:22;;;;;;;;;;;;;;;22.92;26.94;97963.81;4865443;29;1321;-77
2021/11/26 00:35:47;;;;;;;;;;;;;;;23.03;26.42;97959.38;4871920;29;1903;-77
2021/11/26 00:38:13;;;;;;;;;;;;;;;22.82;26.62;97958.00;4884332;29;1013;-76
2021/11/26 00:40:38;;;;;;;;;;;;;;;22.50;27.00;97956.19;4885933;29;902;-77
2021/11/26 00:43:04;;;;;;;;;;;;;;;22.48;26.82;97949.34;4884575;29;940;-76
2021/11/26 00:45:29;;;;;;;;;;;;;;;22.48;27.00;97946.53;4866630;29;922;-77
2021/11/26 00:47:55;;;;;;;;;;;;;;;22.28;27.66;97944.69;4866204;29;945;-76
2021/11/26 00:50:20;;;;;;;;;;;;;;;22.34;27.27;97948.56;4839183;29;910;-77
2021/11/26 00:52:46;;;;;;;;;;;;;;;22.49;27.32;97936.78;4830249;29;909;-77
2021/11/26 00:55:12;;;;;;;;;;;;;;;22.72;26.94;97936.44;4856229;29;1907;-77
2021/11/26 00:57:38;;;;;;;;;;;;;;;22.73;26.79;97935.19;4894030;29;957;-77
2021/11/26 01:00:04;;;;;;;;;;;;;;;22.81;26.94;97947.09;4890546;29;1130;-77
2021/11/26 01:02:30;;;;;;;;;;;;;;;22.29;27.65;97937.78;4908320;29;888;-77
2021/11/26 01:04:55;;;;;;;;;;;;;;;22.20;27.48;97942.53;4969426;28;1349;-77
2021/11/26 01:07:21;;;;;;;;;;;;;;;22.17;27.39;97929.25;5004558;28;797;-77
2021/11/26 01:09:46;;;;;;;;;;;;;;;22.38;27.50;97930.63;5002340;28;823;-77
2021/11/26 01:12:12;;;;;;;;;;;;;;;22.71;26.86;97931.22;5004907;28;1199;-78
2021/11/26 01:14:37;;;;;;;;;;;;;;;22.69;26.94;97925.19;5002527;28;2097;-77
2021/11/26 01:17:04;;;;;;;;;;;;;;;22.01;27.85;97930.09;4984465;28;1042;-77
2021/11/26 01:19:30;;;;;;;;;;;;;;;22.07;27.74;97919.78;4944166;29;903;-77
2021/11/26 01:21:55;;;;;;;;;;;;;;;22.37;27.45;97915.66;4947508;29;883;-76
2021/11/26 01:24:21;;;;;;;;;;;;;;;22.65;27.22;97921.69;4925228;29;1102;-76
2021/11/26 01:26:46;;;;;;;;;;;;;;;22.79;26.91;97916.34;4927012;29;1131;-77
2021/11/26 01:29:11;;;;;;;;;;;;;;;22.31;27.37;97906.94;4925000;29;965;-77
2021/11/26 01:31:38;;;;;;;;;;;;;;;22.34;27.18;97894.69;4927087;29;893;-77
2021/11/26 01:34:04;;;;;;;;;;;;;;;22.34;26.93;97899.59;4925038;29;1903;-77
2021/11/26 01:36:30;;;;;;;;;;;;;;;22.36;27.88;97900.69;4899618;29;817;-77
2021/11/26 01:38:55;;;;;;;;;;;;;;;22.81;26.68;97891.16;4887163;29;1009;-77
2021/11/26 01:41:21;;;;;;;;;;;;;;;22.82;26.48;97887.06;4925034;29;1313;-77
2021/11/26 01:43:46;;;;;;;;;;;;;;;22.59;26.67;97893.13;4920989;29;1041;-76
2021/11/26 01:46:12;;;;;;;;;;;;;;;22.16;27.36;97885.94;4908409;29;946;-77
2021/11/26 01:48:38;;;;;;;;;;;;;;;22.44;27.40;97880.66;4901713;29;966;-77
2021/11/26 01:51:03;;;;;;;;;;;;;;;22.75;27.18;97870.31;4892145;29;1053;-76
2021/11/26 01:53:29;;;;;;;;;;;;;;;22.86;26.53;97865.06;4870152;29;1883;-76
2021/11/26 01:55:54;;;;;;;;;;;;;;;22.62;26.91;97861.00;4940889;29;895;-77
2021/11/26 01:58:20;;;;;;;;;;;;;;;22.26;27.34;97856.47;4971702;28;935;-77
2021/11/26 02:00:46;;;;;;;;;;;;;;;22.09;27.16;97849.31;4983876;28;1033;-77
2021/11/26 02:03:11;;;;;;;;;;;;;;;22.56;27.37;97840.16;4967574;28;863;-77
2021/11/26 02:05:37;;;;;;;;;;;;;;;22.79;26.84;97842.59;4983600;28;922;-77
2021/11/26 02:08:05;;;;;;;;;;;;;;;22.65;26.61;97836.63;4943566;29;1028;-77
2021/11/26 02:10:30;;;;;;;;;;;;;;;22.30;27.48;97851.50;4906413;29;1335;-77
2021/11/26 02:12:56;;;;;;;;;;;;;;;22.28;27.41;97845.50;4891863;29;1249;-77
2021/11/26 02:15:25;;;;;;;;;;;;;;;22.43;27.63;97845.81;4887731;29;1915;-78
2021/11/26 02:17:54;;;;;;;;;;;;;;;22.63;27.22;97837.84;4887366;29;773;-76
2021/11/26 02:20:21;;;;;;;;;;;;;;;22.57;26.82;97831.16;4887101;29;891;-77
2021/11/26 02:22:46;;;;;;;;;;;;;;;22.40;26.77;97832.56;4887541;29;942;-76
2021/11/26 02:25:12;;;;;;;;;;;;;;;22.23;27.04;97846.06;4889982;29;1111;-77
2021/11/26 02:27:38;;;;;;;;;;;;;;;22.25;28.01;97842.78;4921797;29;824;-77
2021/11/26 02:30:22;;;;;;;;;;;;;;;22.87;26.73;97838.25;4924351;29;991;-76
2021/11/26 02:33:00;;;;;;;;;;;;;;;22.84;26.33;97832.72;4911130;29;954;-76
2021/11/26 02:35:26;;;;;;;;;;;;;;;22.52;26.77;97834.59;4888155;29;1982;-77
2021/11/26 02:37:52;;;;;;;;;;;;;;;22.31;26.87;97836.06;4943696;29;908;-77
2021/11/26 02:40:18;;;;;;;;;;;;;;;22.56;26.93;97835.25;4943290;29;840;-77
2021/11/26 02:42:43;;;;;;;;;;;;;;;22.80;26.74;97821.50;4944287;29;945;-77
2021/11/26 02:45:10;;;;;;;;;;;;;;;22.79;26.94;97824.78;4943426;29;877;-77
2021/11/26 02:47:35;;;;;;;;;;;;;;;22.43;27.15;97834.47;4944915;29;856;-76
2021/11/26 02:50:04;;;;;;;;;;;;;;;22.34;27.03;97823.84;4926308;29;884;-77
2021/11/26 02:52:29;;;;;;;;;;;;;;;22.08;27.42;97822.22;4925506;29;1281;-77
2021/11/26 02:54:55;;;;;;;;;;;;;;;22.56;27.40;97817.47;4923670;29;1973;-77
2021/11/26 02:57:20;;;;;;;;;;;;;;;22.77;26.68;97811.06;4869659;29;964;-77
2021/11/26 02:59:46;;;;;;;;;;;;;;;22.67;26.67;97812.22;4886394;29;836;-77
2021/11/26 03:02:11;;;;;;;;;;;;;;;22.51;26.70;97809.53;4869438;29;924;-77
2021/11/26 03:04:37;;;;;;;;;;;;;;;22.36;26.71;97810.00;4866857;29;945;-78
2021/11/26 03:07:02;;;;;;;;;;;;;;;22.55;27.13;97804.53;4855129;29;992;-77
2021/11/26 03:09:28;;;;;;;;;;;;;;;22.66;26.96;97807.81;4839714;29;1449;-78
2021/11/26 03:11:54;;;;;;;;;;;;;;;22.71;26.79;97807.22;4845607;29;1062;-76
2021/11/26 03:14:19;;;;;;;;;;;;;;;22.66;26.50;97804.97;4862599;29;1911;-77
2021/11/26 03:16:45;;;;;;;;;;;;;;;21.99;27.58;97807.94;4902869;29;1165;-77
2021/11/26 03:19:10;;;;;;;;;;;;;;;22.25;27.36;97792.53;4885807;29;946;-77
2021/11/26 03:21:35;;;;;;;;;;;;;;;22.25;27.14;97788.91;4905971;29;1213;-77
2021/11/26 03:24:01;;;;;;;;;;;;;;;22.30;27.51;97786.31;4912693;29;1103;-77
2021/11/26 03:26:27;;;;;;;;;;;;;;;22.52;27.48;97777.09;4925399;29;981;-77
2021/11/26 03:28:52;;;;;;;;;;;;;;;22.68;27.04;97785.44;4885394;29;1238;-77
2021/11/26 03:31:18;;;;;;;;;;;;;;;22.66;26.88;97772.97;4874491;29;951;-77
2021/11/26 03:33:43;;;;;;;;;;;;;;;22.26;27.01;97765.78;4866724;29;1910;-77
2021/11/26 03:36:09;;;;;;;;;;;;;;;22.36;27.12;97763.84;4888336;29;952;-77
2021/11/26 03:38:34;;;;;;;;;;;;;;;22.57;27.49;97768.00;4917076;29;1382;-77
2021/11/26 03:41:00;;;;;;;;;;;;;;;22.81;26.80;97768.41;4925867;29;927;-77
2021/11/26 03:43:25;;;;;;;;;;;;;;;22.71;26.34;97764.69;4922232;29;936;-77
2021/11/26 03:45:51;;;;;;;;;;;;;;;22.53;26.72;97761.66;4925618;29;784;-77
2021/11/26 03:48:16;;;;;;;;;;;;;;;22.05;27.42;97755.13;4941482;29;1245;-76
2021/11/26 03:50:42;;;;;;;;;;;;;;;22.46;27.38;97753.41;4943992;29;908;-77
2021/11/26 03:53:07;;;;;;;;;;;;;;;22.75;27.05;97747.53;4924145;29;1078;-77
2021/11/26 03:55:33;;;;;;;;;;;;;;;22.76;26.92;97744.25;4942847;29;1987;-77
2021/11/26 03:57:58;;;;;;;;;;;;;;;22.09;27.28;97744.47;4942218;29;893;-77
2021/11/26 04:00:24;;;;;;;;;;;;;;;22.31;27.11;97745.38;4943217;29;839;-77
2021/11/26 04:02:49;;;;;;;;;;;;;;;22.01;27.45;97689.28;4942267;29;978;-77
2021/11/26 04:05:15;;;;;;;;;;;;;;;22.54;27.54;97740.56;4929724;29;961;-78
2021/11/26 04:07:40;;;;;;;;;;;;;;;22.65;27.07;97732.47;4942735;29;852;-77
2021/11/26 04:10:06;;;;;;;;;;;;;;;22.74;26.63;97732.56;4941859;29;851;-77
2021/11/26 04:12:32;;;;;;;;;;;;;;;22.43;26.76;97740.13;4942453;29;1095;-77
2021/11/26 04:14:57;;;;;;;;;;;;;;;22.20;27.09;97736.44;4941363;29;1996;-76
2021/11/26 04:17:23;;;;;;;;;;;;;;;22.22;27.40;97735.97;4944113;29;788;-78
2021/11/26 04:19:49;;;;;;;;;;;;;;;22.36;27.57;97729.81;4941153;29;1142;-77
2021/11/26 04:22:14;;;;;;;;;;;;;;;22.74;26.79;97735.41;4924334;29;902;-76
2021/11/26 04:24:40;;;;;;;;;;;;;;;22.68;26.60;97723.03;4964593;28;980;-77
2021/11/26 04:27:05;;;;;;;;;;;;;;;22.20;27.56;97722.25;4981494;28;948;-76
2021/11/26 04:29:31;;;;;;;;;;;;;;;22.17;27.53;97720.31;4963237;28;848;-77
2021/11/26 04:31:56;;;;;;;;;;;;;;;22.15;27.84;97720.00;4981186;28;951;-77
2021/11/26 04:34:22;;;;;;;;;;;;;;;22.48;27.33;97702.69;4978786;28;1906;-77
2021/11/26 04:36:47;;;;;;;;;;;;;;;22.60;26.97;97702.66;4984637;28;945;-77
2021/11/26 04:39:13;;;;;;;;;;;;;;;22.40;27.07;97707.03;4978890;28;1227;-76
2021/11/26 04:41:38;;;;;;;;;;;;;;;22.26;27.05;97702.63;4941772;29;909;-76
2021/11/26 04:44:04;;;;;;;;;;;;;;;22.37;26.62;97700.22;4940794;29;1153;-76
2021/11/26 04:46:29;;;;;;;;;;;;;;;22.32;27.71;97689.47;4942313;29;969;-76
2021/11/26 04:48:54;;;;;;;;;;;;;;;22.71;26.88;97692.97;4940141;29;905;-77
2021/11/26 04:51:20;;;;;;;;;;;;;;;22.79;26.72;97683.72;4902501;29;927;-77
2021/11/26 04:53:46;;;;;;;;;;;;;;;22.60;26.64;97682.03;4896343;29;1981;-76
2021/11/26 04:56:11;;;;;;;;;;;;;;;22.22;27.31;97676.47;4923836;29;1116;-77
2021/11/26 04:58:37;;;;;;;;;;;;;;;22.19;27.23;97681.00;4920818;29;932;-77
2021/11/26 05:01:03;;;;;;;;;;;;;;;22.49;27.64;97676.72;4924609;29;900;-77
2021/11/26 05:03:29;;;;;;;;;;;;;;;22.81;27.09;97675.56;4920283;29;885;-77
2021/11/26 05:05:54;;;;;;;;;;;;;;;22.95;26.69;97670.63;4908298;29;915;-76
2021/11/26 05:08:21;;;;;;;;;;;;;;;22.55;26.88;97674.09;4937703;28;983;-77
2021/11/26 05:10:53;;;;;;;;;;;;;;;22.29;26.98;97668.50;4961298;28;1314;-77
2021/11/26 05:13:23;;;;;;;;;;;;;;;22.21;27.52;97674.88;4955085;29;1212;-77
2021/11/26 05:15:49;;;;;;;;;;;;;;;22.48;27.25;97674.34;4895604;29;1976;-77
2021/11/26 05:18:15;;;;;;;;;;;;;;;22.74;26.97;97675.84;4902235;29;920;-77
2021/11/26 05:20:41;;;;;;;;;;;;;;;22.83;26.24;97683.63;4903192;29;984;-77
2021/11/26 05:23:06;;;;;;;;;;;;;;;22.46;27.14;97682.53;4919389;29;955;-77
2021/11/26 05:25:31;;;;;;;;;;;;;;;22.35;27.04;97680.84;4921118;29;902;-77
2021/11/26 05:27:57;;;;;;;;;;;;;;;22.49;27.72;97681.63;4951320;29;921;-77
2021/11/26 05:30:22;;;;;;;;;;;;;;;22.69;26.85;97684.13;4939446;29;942;-77
2021/11/26 05:32:49;;;;;;;;;;;;;;;22.75;26.78;97682.31;4939957;29;925;-77
2021/11/26 05:35:15;;;;;;;;;;;;;;;22.39;27.15;97682.78;4939712;29;1989;-77
2021/11/26 05:37:41;;;;;;;;;;;;;;;22.30;26.95;97670.09;4940420;29;847;-77
2021/11/26 05:40:06;;;;;;;;;;;;;;;22.24;27.43;97676.81;4920020;29;1120;-78
2021/11/26 05:42:32;;;;;;;;;;;;;;;22.69;26.78;97661.44;4975273;28;1184;-76
2021/11/26 05:44:57;;;;;;;;;;;;;;;22.73;26.80;97659.25;4992345;28;891;-77
2021/11/26 05:47:23;;;;;;;;;;;;;;;22.74;26.83;97664.50;5002449;28;952;-77
2021/11/26 05:49:48;;;;;;;;;;;;;;;22.28;27.12;97657.66;4980638;28;990;-77
2021/11/26 05:52:14;;;;;;;;;;;;;;;22.35;27.17;97666.69;4982698;28;984;-77
2021/11/26 05:54:39;;;;;;;;;;;;;;;22.27;27.48;97659.66;4980208;28;1906;-76
2021/11/26 05:57:05;;;;;;;;;;;;;;;22.59;27.20;97663.44;4982379;28;782;-77
2021/11/26 05:59:30;;;;;;;;;;;;;;;22.74;26.78;97670.16;4958980;29;1000;-77
2021/11/26 06:01:58;;;;;;;;;;;;;;;22.53;27.06;97666.03;4926669;29;865;-77
2021/11/26 06:04:24;;;;;;;;;;;;;;;22.38;27.37;97669.84;4924972;29;893;-77
2021/11/26 06:06:50;;;;;;;;;;;;;;;22.33;27.37;97674.06;4966015;28;873;-78
2021/11/26 06:09:15;;;;;;;;;;;;;;;22.34;27.87;97667.16;4924003;29;966;-77
2021/11/26 06:11:41;;;;;;;;;;;;;;;22.68;26.96;97671.19;4926744;29;1209;-77
2021/11/26 06:14:06;;;;;;;;;;;;;;;22.82;26.99;97688.50;4909977;29;1988;-78
2021/11/26 06:16:32;;;;;;;;;;;;;;;22.56;26.84;97675.69;4906916;29;907;-77
2021/11/26 06:18:57;;;;;;;;;;;;;;;22.45;26.83;97678.09;4904638;29;891;-78
2021/11/26 06:21:23;;;;;;;;;;;;;;;22.30;27.07;97670.09;4922213;29;1026;-78
2021/11/26 06:23:48;;;;;;;;;;;;;;;22.26;27.46;97675.09;4903809;29;986;-77
2021/11/26 06:26:14;;;;;;;;;;;;;;;22.36;27.62;97673.94;4893247;29;979;-76
2021/11/26 06:28:39;;;;;;;;;;;;;;;22.74;27.22;97681.50;4903952;29;937;-78
2021/11/26 06:31:04;;;;;;;;;;;;;;;22.71;27.05;97671.09;4893084;29;975;-77
2021/11/26 06:33:30;;;;;;;;;;;;;;;22.34;27.39;97662.25;4888639;29;990;-77
2021/11/26 06:35:55;;;;;;;;;;;;;;;22.38;27.16;97667.78;4904659;29;1988;-77
2021/11/26 06:38:21;;;;;;;;;;;;;;;22.31;27.77;97666.00;4867494;29;990;-77
2021/11/26 06:40:46;;;;;;;;;;;;;;;22.72;27.05;97666.19;4909764;29;958;-78
2021/11/26 06:43:12;;;;;;;;;;;;;;;22.71;27.21;97659.75;4921922;29;900;-77
2021/11/26 06:45:37;;;;;;;;;;;;;;;22.57;26.85;97665.91;4927046;29;1016;-78
2021/11/26 06:48:03;;;;;;;;;;;;;;;22.25;27.16;97667.06;4946051;29;945;-77
2021/11/26 06:50:28;;;;;;;;;;;;;;;21.98;27.60;97659.84;4963572;29;811;-78
2021/11/26 06:52:54;;;;;;;;;;;;;;;22.52;27.63;97663.66;4963166;29;946;-77
2021/11/26 06:55:19;;;;;;;;;;;;;;;22.80;26.74;97662.66;4989572;28;1981;-78
2021/11/26 06:57:45;;;;;;;;;;;;;;;22.46;27.12;97666.31;4981605;28;898;-77
2021/11/26 07:00:12;;;;;;;;;;;;;;;22.58;26.85;97656.16;4981144;28;1157;-77
2021/11/26 07:02:37;;;;;;;;;;;;;;;22.29;27.19;97651.50;4966309;28;876;-78
2021/11/26 07:05:03;;;;;;;;;;;;;;;22.51;27.32;97659.25;4981031;28;866;-77
2021/11/26 07:07:29;;;;;;;;;;;;;;;22.67;27.00;97664.75;4968922;28;1009;-78
2021/11/26 07:09:54;;;;;;;;;;;;;;;22.68;27.07;97674.81;4941710;29;913;-77
2021/11/26 07:12:20;;;;;;;;;;;;;;;22.46;26.95;97671.97;4944598;29;1081;-78
2021/11/26 07:14:45;;;;;;;;;;;;;;;22.21;27.23;97672.84;4942345;29;1891;-77
2021/11/26 07:17:11;;;;;;;;;;;;;;;22.30;27.04;97670.09;4944694;29;975;-77
2021/11/26 07:19:38;;;;;;;;;;;;;;;22.24;28.21;97669.09;4942133;29;878;-77
2021/11/26 07:22:04;;;;;;;;;;;;;;;22.59;27.35;97663.44;4962901;29;923;-77
2021/11/26 07:24:29;;;;;;;;;;;;;;;22.82;27.09;97643.13;4961531;29;910;-78
2021/11/26 07:26:55;;;;;;;;;;;;;;;22.91;26.77;97635.97;4963341;29;914;-77
2021/11/26 07:29:20;;;;;;;;;;;;;;;22.71;26.59;97634.22;4961441;29;1022;-78
2021/11/26 07:31:46;;;;;;;;;;;;;;;22.34;27.51;97619.75;4963168;29;1133;-77
2021/11/26 07:34:11;;;;;;;;;;;;;;;22.10;27.88;97621.38;4963111;28;1888;-77
2021/11/26 07:36:37;;;;;;;;;;;;;;;22.35;27.40;97610.00;4983705;28;1011;-78
2021/11/26 07:39:03;;;;;;;;;;;;;;;22.38;27.76;97610.31;5019376;28;1222;-77
2021/11/26 07:41:28;;;;;;;;;;;;;;;22.67;26.95;97596.69;5006769;28;916;-77
2021/11/26 07:43:54;;;;;;;;;;;;;;;22.67;27.02;97593.84;4998794;28;933;-78
2021/11/26 07:46:19;;;;;;;;;;;;;;;22.28;27.56;97592.47;5002010;28;767;-78
2021/11/26 07:48:45;;;;;;;;;;;;;;;22.24;27.41;97586.91;4997632;28;1036;-78
2021/11/26 07:51:10;;;;;;;;;;;;;;;22.22;27.81;97589.38;5002436;28;890;-79
2021/11/26 07:53:35;;;;;;;;;;;;;;;22.31;27.79;97574.50;4980629;28;901;-77
2021/11/26 07:56:01;;;;;;;;;;;;;;;22.78;26.84;97563.03;5001910;28;1971;-77
2021/11/26 07:58:27;;;;;;;;;;;;;;;22.80;26.92;97559.75;4981935;28;976;-77
2021/11/26 08:00:52;;;;;;;;;;;;;;;22.43;27.21;97558.69;5001895;28;739;-78
2021/11/26 08:03:20;;;;;;;;;;;;;;;22.23;27.48;97556.19;4998666;28;920;-77
2021/11/26 08:05:46;;;;;;;;;;;;;;;22.34;27.34;97550.94;4985391;28;831;-78
2021/11/26 08:08:11;;;;;;;;;;;;;;;22.64;27.15;97546.56;4998142;28;899;-77
2021/11/26 08:10:37;;;;;;;;;;;;;;;22.73;26.84;97555.13;5015317;28;925;-78
2021/11/26 08:13:03;;;;;;;;;;;;;;;22.57;27.17;97535.47;5018126;28;1307;-78
2021/11/26 08:15:30;;;;;;;;;;;;;;;22.20;27.63;97532.41;5020409;28;1989;-77
2021/11/26 08:17:56;;;;;;;;;;;;;;;22.33;27.08;97538.03;5019241;28;834;-77
2021/11/26 08:20:21;;;;;;;;;;;;;;;22.44;26.75;97537.63;5003058;28;895;-78
2021/11/26 08:22:47;;;;;;;;;;;;;;;22.67;27.09;97539.97;5019855;28;898;-77
2021/11/26 08:25:13;;;;;;;;;;;;;;;22.85;26.95;97527.94;5028868;28;1004;-77
2021/11/26 08:27:38;;;;;;;;;;;;;;;22.63;26.82;97534.41;5039696;28;858;-78
2021/11/26 08:30:04;;;;;;;;;;;;;;;22.62;26.63;97537.72;5037977;28;874;-78
2021/11/26 08:32:29;;;;;;;;;;;;;;;22.13;27.26;97520.53;4990516;28;905;-77
2021/11/26 08:34:55;;;;;;;;;;;;;;;22.42;27.86;97523.88;5037905;28;1899;-77
2021/11/26 08:37:21;;;;;;;;;;;;;;;22.74;26.99;97539.69;4980984;28;832;-77
2021/11/26 08:39:48;;;;;;;;;;;;;;;22.74;26.92;97530.38;4978755;28;983;-77
2021/11/26 08:42:14;;;;;;;;;;;;;;;22.32;27.58;97514.53;4981330;28;828;-77
2021/11/26 08:44:39;;;;;;;;;;;;;;;22.31;27.17;97498.78;4979110;28;872;-77
2021/11/26 08:47:05;;;;;;;;;;;;;;;22.17;27.67;97507.81;4981009;28;795;-77
2021/11/26 08:49:30;;;;;;;;;;;;;;;22.58;27.31;97501.00;4978853;28;859;-77
2021/11/26 08:51:56;;;;;;;;;;;;;;;22.94;26.57;97493.16;4981078;28;982;-77
2021/11/26 08:54:25;;;;;;;;;;;;;;;22.73;26.66;97497.59;4979098;28;1910;-77
2021/11/26 08:56:53;;;;;;;;;;;;;;;22.51;26.84;97497.66;5011717;28;820;-78
2021/11/26 08:59:19;;;;;;;;;;;;;;;22.55;26.91;97482.09;5002120;28;906;-77
2021/11/26 09:01:44;;;;;;;;;;;;;;;22.30;28.00;97483.03;5020447;28;763;-76
2021/11/26 09:04:11;;;;;;;;;;;;;;;22.80;27.07;97492.47;4979468;28;911;-77
2021/11/26 09:06:37;;;;;;;;;;;;;;;22.91;26.70;97479.94;4965024;28;858;-77
2021/11/26 09:09:03;;;;;;;;;;;;;;;22.50;26.92;97462.84;5008905;28;800;-77
2021/11/26 09:11:28;;;;;;;;;;;;;;;22.43;27.04;97456.63;5039318;28;1049;-77
2021/11/26 09:13:54;;;;;;;;;;;;;;;22.38;26.95;97454.41;5017122;28;1906;-76
2021/11/26 09:16:19;;;;;;;;;;;;;;;22.50;27.59;97439.38;4981467;28;942;-77
2021/11/26 09:18:45;;;;;;;;;;;;;;;22.67;27.48;97437.88;4977810;28;898;-78
2021/11/26 09:21:12;;;;;;;;;;;;;;;22.86;27.01;97439.53;4986168;28;866;-77
2021/11/26 09:23:37;;;;;;;;;;;;;;;22.67;26.98;97425.75;4958394;29;967;-77
2021/11/26 09:26:02;;;;;;;;;;;;;;;22.38;27.11;97404.16;4946703;29;904;-77
2021/11/26 09:28:28;;;;;;;;;;;;;;;22.54;26.69;97406.00;4942659;29;900;-77
2021/11/26 09:30:53;;;;;;;;;;;;;;;22.35;28.02;97397.41;4946273;29;876;-77
2021/11/26 09:33:19;;;;;;;;;;;;;;;22.70;27.18;97397.25;4943413;29;942;-77
2021/11/26 09:35:45;;;;;;;;;;;;;;;22.76;27.04;97395.38;4945281;29;1891;-78
2021/11/26 09:38:10;;;;;;;;;;;;;;;22.48;26.95;97385.16;4943598;29;932;-77
2021/11/26 09:40:36;;;;;;;;;;;;;;;22.20;27.34;97373.72;4946561;29;921;-78
2021/11/26 09:43:02;;;;;;;;;;;;;;;22.18;27.16;97369.78;4963519;29;811;-77
2021/11/26 09:45:28;;;;;;;;;;;;;;;21.79;27.70;97363.50;4964387;29;841;-77
2021/11/26 09:47:53;;;;;;;;;;;;;;;22.49;27.74;97355.59;4978994;28;827;-78
2021/11/26 09:50:19;;;;;;;;;;;;;;;22.76;27.32;97354.88;4979125;28;823;-78
2021/11/26 09:52:45;;;;;;;;;;;;;;;22.84;26.68;97362.59;4981168;28;835;-77
2021/11/26 09:55:10;;;;;;;;;;;;;;;22.44;27.29;97362.66;4982429;28;1957;-77
2021/11/26 09:57:37;;;;;;;;;;;;;;;22.29;27.65;97351.09;5000095;28;809;-78
2021/11/26 10:00:03;;;;;;;;;;;;;;;22.23;27.63;97344.44;4981469;28;864;-78
2021/11/26 10:02:30;;;;;;;;;;;;;;;22.58;27.61;97349.91;5002693;28;941;-77
2021/11/26 10:05:05;;;;;;;;;;;;;;;22.66;27.23;97345.56;5001530;28;906;-77
2021/11/26 10:07:31;;;;;;;;;;;;;;;22.63;26.84;97346.47;4971377;28;908;-79
2021/11/26 10:10:09;;;;;;;;;;;;;;;22.36;27.05;97342.28;4962419;28;1184;-78
2021/11/26 10:12:34;;;;;;;;;;;;;;;22.17;27.51;97337.00;4964047;29;1311;-78
2021/11/26 10:15:00;;;;;;;;;;;;;;;22.20;28.14;97331.19;4976015;28;1919;-77
2021/11/26 10:17:25;;;;;;;;;;;;;;;22.70;27.37;97312.16;4982911;28;1013;-77
2021/11/26 10:19:55;;;;;;;;;;;;;;;22.79;26.96;97308.53;4981241;28;897;-77
2021/11/26 10:22:24;;;;;;;;;;;;;;;22.57;27.09;97291.66;4963262;29;973;-77
2021/11/26 10:24:59;;;;;;;;;;;;;;;22.42;27.31;97271.59;4923281;29;986;-77
2021/11/26 10:27:37;;;;;;;;;;;;;;;22.15;27.32;97266.63;4925500;29;896;-77
2021/11/26 10:30:19;;;;;;;;;;;;;;;22.35;27.93;97264.19;4923536;29;1013;-77
2021/11/26 10:32:55;;;;;;;;;;;;;;;22.66;27.48;97257.66;4924026;29;934;-77
2021/11/26 10:35:20;;;;;;;;;;;;;;;22.80;27.18;97248.53;4924306;29;1892;-78
2021/11/26 10:37:58;;;;;;;;;;;;;;;22.55;27.35;97248.81;4924242;29;850;-77
2021/11/26 10:40:26;;;;;;;;;;;;;;;22.41;27.13;97249.41;4929123;29;893;-76
2021/11/26 10:42:52;;;;;;;;;;;;;;;22.29;27.47;97246.22;4943152;29;971;-76
2021/11/26 10:45:26;;;;;;;;;;;;;;;22.49;27.72;97245.03;4942908;29;926;-76
2021/11/26 10:48:16;;;;;;;;;;;;;;;22.90;27.13;97240.03;4958390;28;938;-77
2021/11/26 10:50:56;;;;;;;;;;;;;;;22.92;26.65;97246.03;5002141;28;815;-77
2021/11/26 10:58:51;;;;;;;;;;;;;;;22.47;27.19;97253.19;5060604;28;949;-77
2021/11/26 11:01:16;;;;;;;;;;;;;;;22.43;28.41;97246.88;5064930;28;763;-77
2021/11/26 11:03:42;;;;;;;;;;;;;;;22.71;27.24;97245.69;5042511;28;906;-77
2021/11/26 11:06:34;;;;;;;;;;;;;;;22.74;27.22;97244.75;5063710;28;732;-77
2021/11/26 11:09:02;;;;;;;;;;;;;;;22.49;27.62;97239.34;4999082;28;1041;-77
2021/11/26 11:11:27;;;;;;;;;;;;;;;22.36;27.24;97228.91;5002072;28;912;-77
2021/11/26 11:13:53;;;;;;;;;;;;;;;22.31;27.64;97231.56;4998476;28;1896;-78
2021/11/26 11:16:18;;;;;;;;;;;;;;;22.56;27.64;97224.88;4963457;29;908;-77
2021/11/26 11:18:44;;;;;;;;;;;;;;;22.79;27.08;97207.22;4941058;29;973;-77
2021/11/26 11:21:09;;;;;;;;;;;;;;;22.57;27.13;97206.59;4928572;29;942;-77
2021/11/26 11:23:35;;;;;;;;;;;;;;;22.39;27.37;97210.19;4924808;29;1169;-78
2021/11/26 11:26:00;;;;;;;;;;;;;;;22.46;27.21;97206.25;4928264;29;879;-78
2021/11/26 11:28:26;;;;;;;;;;;;;;;22.36;27.26;97205.44;4940536;29;835;-78
2021/11/26 11:30:52;;;;;;;;;;;;;;;22.70;27.58;97193.06;4944409;29;953;-77
2021/11/26 11:33:17;;;;;;;;;;;;;;;22.82;27.42;97188.50;4884089;29;1025;-77
2021/11/26 11:35:46;;;;;;;;;;;;;;;22.98;26.67;97173.22;4886088;29;1964;-77
2021/11/26 11:38:12;;;;;;;;;;;;;;;22.04;27.95;97175.59;4884731;29;987;-78
2021/11/26 11:40:38;;;;;;;;;;;;;;;22.15;27.59;97170.31;4886354;29;876;-77
2021/11/26 11:43:08;;;;;;;;;;;;;;;22.01;27.72;97156.69;4884022;29;874;-77
2021/11/26 11:45:33;;;;;;;;;;;;;;;22.61;27.98;97161.88;4892937;29;1721;-78
2021/11/26 11:47:59;;;;;;;;;;;;;;;22.73;27.64;97163.75;4972128;28;1008;-77
2021/11/26 11:50:27;;;;;;;;;;;;;;;22.70;27.17;97142.03;5011494;28;839;-77
2021/11/26 11:53:00;;;;;;;;;;;;;;;22.43;27.42;97156.94;4980475;28;971;-77
2021/11/26 11:55:25;;;;;;;;;;;;;;;22.43;27.30;97142.00;4980150;28;1989;-77
2021/11/26 11:57:53;;;;;;;;;;;;;;;22.35;27.53;97136.66;4980892;28;905;-77
2021/11/26 12:00:19;;;;;;;;;;;;;;;22.43;27.23;97127.81;4980815;28;852;-78
2021/11/26 12:02:45;;;;;;;;;;;;;;;22.67;27.52;97117.44;4980844;28;823;-77
2021/11/26 12:05:23;;;;;;;;;;;;;;;22.77;27.43;97107.66;5030588;28;974;-77
2021/11/26 12:07:49;;;;;;;;;;;;;;;22.55;27.56;97107.06;5024550;28;771;-79
2021/11/26 12:10:16;;;;;;;;;;;;;;;22.38;27.91;97097.28;5023653;28;800;-77
2021/11/26 12:12:44;;;;;;;;;;;;;;;22.25;28.01;97097.44;5040869;28;1072;-77
2021/11/26 12:15:09;;;;;;;;;;;;;;;22.23;28.09;97080.91;5040102;28;1902;-77
2021/11/26 12:17:36;;;;;;;;;;;;;;;22.52;28.01;97079.63;5041453;28;921;-78
2021/11/26 12:20:12;;;;;;;;;;;;;;;22.74;27.60;97060.41;5019476;28;1044;-78
2021/11/26 12:22:52;;;;;;;;;;;;;;;22.67;27.36;97057.88;5001147;28;919;-77
2021/11/26 12:25:29;;;;;;;;;;;;;;;22.20;27.87;97059.19;4980733;28;932;-77
2021/11/26 12:27:56;;;;;;;;;;;;;;;22.28;27.47;97049.13;4980536;28;1291;-77
2021/11/26 12:30:22;;;;;;;;;;;;;;;22.22;27.56;97050.97;4974107;28;1275;-78
2021/11/26 12:32:47;;;;;;;;;;;;;;;22.60;28.11;97058.22;5019991;28;1309;-78
2021/11/26 12:35:13;;;;;;;;;;;;;;;22.73;27.58;97050.31;5019102;28;1887;-78
2021/11/26 12:37:38;;;;;;;;;;;;;;;22.67;27.40;97052.22;4941900;29;1444;-78
2021/11/26 12:40:06;;;;;;;;;;;;;;;22.52;27.54;97074.75;4940273;29;1252;-78
2021/11/26 12:42:31;;;;;;;;;;;;;;;22.20;27.74;97070.50;4923668;29;1319;-77
2021/11/26 12:45:00;;;;;;;;;;;;;;;22.34;27.52;97069.09;4930767;29;1366;-77
2021/11/26 12:47:38;;;;;;;;;;;;;;;22.59;28.34;97063.09;4959302;28;1556;-76
2021/11/26 12:52:51;;;;;;;;;;;;;;;22.46;27.73;97036.97;4909804;29;1205;-77
2021/11/26 12:55:17;;;;;;;;;;;;;;;22.32;27.75;97027.06;4902394;29;1887;-76
2021/11/26 12:57:42;;;;;;;;;;;;;;;22.29;27.80;97011.00;4870843;29;879;-77
2021/11/26 13:00:08;;;;;;;;;;;;;;;22.23;27.88;97012.91;4870795;29;833;-77
2021/11/26 13:02:35;;;;;;;;;;;;;;;22.56;28.52;97012.22;4902735;29;898;-77
2021/11/26 13:05:01;;;;;;;;;;;;;;;22.82;27.54;97009.81;4906711;29;924;-77
2021/11/26 13:07:27;;;;;;;;;;;;;;;22.84;27.16;96996.69;4909299;29;986;-77
2021/11/26 13:09:53;;;;;;;;;;;;;;;22.53;27.58;97001.81;4925993;29;967;-77